createdAt,value
2019-04-04T00:01:32.723Z,48.65
2019-04-04T00:04:04.107Z,48.67
2019-04-04T00:06:35.379Z,48.76
2019-04-04T00:09:10.307Z,48.83
2019-04-04T00:11:41.693Z,48.91
2019-04-04T00:14:13.521Z,49.03
2019-04-04T00:16:46.742Z,49.11
2019-04-04T00:19:18.083Z,49.18
2019-04-04T00:21:49.471Z,49.27
2019-04-04T00:24:20.829Z,49.31
2019-04-04T00:26:52.128Z,49.37
2019-04-04T00:29:23.419Z,49.48
2019-04-04T00:31:54.611Z,49.62
2019-04-04T00:34:27.946Z,49.76
2019-04-04T00:36:58.803Z,49.89
2019-04-04T00:39:31.134Z,50.00
2019-04-04T00:42:02.784Z,49.99
2019-04-04T00:44:34.186Z,50.26
2019-04-04T00:47:05.410Z,50.39
2019-04-04T00:49:37.702Z,50.55
2019-04-04T00:52:10.333Z,50.70
2019-04-04T00:54:44.654Z,50.79
2019-04-04T00:57:18.576Z,51.09
2019-04-04T00:59:48.693Z,51.20
2019-04-04T01:02:20.130Z,51.19
2019-04-04T01:04:51.679Z,51.43
2019-04-04T01:07:23.073Z,51.59
2019-04-04T01:09:54.785Z,51.79
2019-04-04T01:12:26.321Z,51.84
2019-04-04T01:15:00.120Z,52.10
2019-04-04T01:17:33.020Z,52.39
2019-04-04T01:20:06.649Z,52.56
2019-04-04T01:22:38.119Z,52.79
2019-04-04T01:25:09.695Z,52.89
2019-04-04T01:27:41.206Z,53.01
2019-04-04T01:30:12.778Z,53.22
2019-04-04T01:32:44.005Z,53.15
2019-04-04T01:35:15.255Z,53.35
2019-04-04T01:37:46.524Z,53.45
2019-04-04T01:40:17.787Z,53.31
2019-04-04T01:42:48.963Z,53.71
2019-04-04T01:45:20.134Z,53.66
2019-04-04T01:47:51.398Z,53.81
2019-04-04T01:50:23.298Z,53.81
2019-04-04T01:52:54.640Z,53.96
2019-04-04T01:55:25.936Z,53.90
2019-04-04T01:57:57.113Z,53.86
2019-04-04T02:00:28.542Z,53.89
2019-04-04T02:02:59.711Z,53.96
2019-04-04T02:05:30.898Z,54.04
2019-04-04T02:08:02.405Z,54.04
2019-04-04T02:10:34.937Z,54.10
2019-04-04T02:13:09.624Z,54.16
2019-04-04T02:15:39.374Z,54.14
2019-04-04T02:18:10.514Z,54.20
2019-04-04T02:20:41.694Z,54.23
2019-04-04T02:23:12.894Z,54.26
2019-04-04T02:25:44.124Z,54.29
2019-04-04T02:28:15.280Z,54.39
2019-04-04T02:30:48.478Z,54.39
2019-04-04T02:33:19.334Z,54.39
2019-04-04T02:35:50.572Z,54.35
2019-04-04T02:38:21.806Z,54.44
2019-04-04T02:40:53.029Z,54.40
2019-04-04T02:43:27.337Z,54.52
2019-04-04T02:45:57.084Z,54.55
2019-04-04T02:48:28.231Z,54.55
2019-04-04T02:50:59.360Z,54.69
2019-04-04T02:53:30.501Z,54.62
2019-04-04T02:56:03.239Z,54.53
2019-04-04T02:58:34.642Z,54.54
2019-04-04T03:01:05.834Z,54.59
2019-04-04T03:03:41.151Z,54.55
2019-04-04T03:06:09.829Z,54.59
2019-04-04T03:08:41.035Z,54.66
2019-04-04T03:11:12.191Z,54.57
2019-04-04T03:13:43.358Z,54.57
2019-04-04T03:16:14.528Z,54.51
2019-04-04T03:18:45.682Z,54.48
2019-04-04T03:21:16.815Z,54.48
2019-04-04T03:23:48.051Z,54.63
2019-04-04T03:26:20.595Z,54.62
2019-04-04T03:28:51.854Z,54.65
2019-04-04T03:31:22.968Z,54.67
2019-04-04T03:33:54.163Z,54.61
2019-04-04T03:36:25.279Z,54.62
2019-04-04T03:38:56.443Z,54.70
2019-04-04T03:41:30.673Z,54.63
2019-04-04T03:44:00.440Z,54.65
2019-04-04T03:46:37.434Z,54.61
2019-04-04T03:49:05.540Z,54.62
2019-04-04T03:51:37.986Z,54.64
2019-04-04T03:54:16.721Z,54.58
2019-04-04T03:56:47.885Z,54.55
2019-04-04T03:59:18.975Z,54.49
2019-04-04T04:01:50.147Z,54.45
2019-04-04T04:04:26.809Z,54.41
2019-04-04T04:06:55.969Z,54.37
2019-04-04T04:09:27.328Z,54.33
2019-04-04T04:11:58.628Z,54.30
2019-04-04T04:14:29.826Z,54.22
2019-04-04T04:17:01.187Z,54.18
2019-04-04T04:19:32.392Z,54.13
2019-04-04T04:22:03.552Z,54.09
2019-04-04T04:24:34.743Z,54.07
2019-04-04T04:27:05.934Z,54.10
2019-04-04T04:29:37.136Z,54.15
2019-04-04T04:32:08.293Z,54.31
2019-04-04T04:34:39.459Z,54.26
2019-04-04T04:37:10.641Z,54.31
2019-04-04T04:39:41.779Z,54.31
2019-04-04T04:42:13.039Z,54.34
2019-04-04T04:44:44.179Z,54.38
2019-04-04T04:47:15.339Z,54.39
2019-04-04T04:49:46.553Z,54.36
2019-04-04T04:52:17.751Z,54.54
2019-04-04T04:54:48.943Z,54.51
2019-04-04T04:57:29.354Z,54.58
2019-04-04T04:59:53.019Z,54.61
2019-04-04T05:02:24.144Z,54.58
2019-04-04T05:04:55.272Z,54.54
2019-04-04T05:07:26.432Z,54.51
2019-04-04T05:09:57.592Z,54.46
2019-04-04T05:12:28.744Z,54.46
2019-04-04T05:15:01.432Z,54.47
2019-04-04T05:17:32.837Z,54.41
2019-04-04T05:20:04.812Z,54.46
2019-04-04T05:22:35.950Z,54.43
2019-04-04T05:25:08.726Z,54.39
2019-04-04T05:27:40.311Z,54.34
2019-04-04T05:30:11.519Z,54.28
2019-04-04T05:32:42.705Z,54.32
2019-04-04T05:35:15.225Z,54.24
2019-04-04T05:37:46.653Z,54.20
2019-04-04T05:40:17.832Z,54.17
2019-04-04T05:42:49.090Z,54.15
2019-04-04T05:45:20.227Z,54.13
2019-04-04T05:47:54.973Z,54.13
2019-04-04T05:50:25.400Z,54.07
2019-04-04T05:52:56.517Z,54.09
2019-04-04T05:55:27.693Z,54.20
2019-04-04T05:57:58.834Z,54.13
2019-04-04T06:00:29.984Z,54.13
2019-04-04T06:03:01.160Z,54.13
2019-04-04T06:05:32.354Z,54.06
2019-04-04T06:08:03.549Z,54.12
2019-04-04T06:10:34.936Z,54.13
2019-04-04T06:13:06.101Z,54.14
2019-04-04T06:15:37.248Z,54.10
2019-04-04T06:18:10.977Z,54.06
2019-04-04T06:20:41.268Z,54.02
2019-04-04T06:23:12.441Z,54.00
2019-04-04T06:25:43.616Z,53.98
2019-04-04T06:28:14.801Z,54.02
2019-04-04T06:30:45.997Z,54.06
2019-04-04T06:33:17.245Z,54.19
2019-04-04T06:35:48.434Z,54.16
2019-04-04T06:38:23.080Z,54.26
2019-04-04T06:40:53.556Z,54.27
2019-04-04T06:43:24.750Z,54.29
2019-04-04T06:45:55.934Z,54.38
2019-04-04T06:48:29.298Z,54.36
2019-04-04T06:51:00.018Z,54.36
2019-04-04T06:53:31.205Z,54.48
2019-04-04T06:56:03.027Z,54.45
2019-04-04T06:58:34.276Z,54.49
2019-04-04T07:01:05.446Z,54.52
2019-04-04T07:03:36.639Z,54.43
2019-04-04T07:06:09.837Z,54.42
2019-04-04T07:08:40.687Z,54.30
2019-04-04T07:11:21.096Z,54.27
2019-04-04T07:13:44.940Z,54.19
2019-04-04T07:16:16.089Z,54.21
2019-04-04T07:18:47.316Z,54.25
2019-04-04T07:21:20.207Z,54.30
2019-04-04T07:23:51.450Z,54.50
2019-04-04T07:26:22.684Z,54.42
2019-04-04T07:28:54.118Z,54.47
2019-04-04T07:31:26.299Z,54.59
2019-04-04T07:33:57.463Z,54.58
2019-04-04T07:36:28.638Z,54.63
2019-04-04T07:39:00.338Z,54.64
2019-04-04T07:41:33.990Z,54.81
2019-04-04T07:44:05.188Z,54.89
2019-04-04T07:46:36.332Z,54.86
2019-04-04T07:49:07.504Z,54.87
2019-04-04T07:51:38.647Z,54.77
2019-04-04T07:54:09.880Z,54.66
2019-04-04T07:56:41.028Z,54.54
2019-04-04T07:59:12.508Z,54.42
2019-04-04T08:01:50.977Z,54.34
2019-04-04T08:04:16.627Z,54.27
2019-04-04T08:06:47.790Z,54.21
2019-04-04T08:09:19.030Z,54.14
2019-04-04T08:11:50.200Z,54.09
2019-04-04T08:14:21.381Z,54.01
2019-04-04T08:16:52.561Z,54.01
2019-04-04T08:19:23.709Z,53.98
2019-04-04T08:21:54.887Z,53.92
2019-04-04T08:24:26.106Z,53.93
2019-04-04T08:26:57.287Z,53.84
2019-04-04T08:29:28.455Z,53.82
2019-04-04T08:31:59.627Z,53.87
2019-04-04T08:34:31.004Z,53.86
2019-04-04T08:37:02.184Z,53.87
2019-04-04T08:39:33.340Z,53.94
2019-04-04T08:42:04.564Z,53.96
2019-04-04T08:44:35.707Z,53.92
2019-04-04T08:47:06.907Z,53.89
2019-04-04T08:49:38.084Z,53.84
2019-04-04T08:52:16.461Z,53.84
2019-04-04T08:54:42.204Z,53.82
2019-04-04T08:57:13.348Z,53.80
2019-04-04T08:59:44.500Z,53.76
2019-04-04T09:02:15.724Z,53.70
2019-04-04T09:04:46.910Z,53.67
2019-04-04T09:07:18.060Z,53.66
2019-04-04T09:09:49.349Z,53.68
2019-04-04T09:12:20.538Z,53.69
2019-04-04T09:14:51.851Z,53.69
2019-04-04T09:17:23.032Z,53.74
2019-04-04T09:19:54.275Z,53.71
2019-04-04T09:22:25.426Z,53.76
2019-04-04T09:24:57.604Z,53.75
2019-04-04T09:27:29.760Z,53.81
2019-04-04T09:30:00.917Z,53.83
2019-04-04T09:32:32.057Z,53.82
2019-04-04T09:35:03.269Z,53.78
2019-04-04T09:37:34.402Z,53.73
2019-04-04T09:40:06.228Z,53.74
2019-04-04T09:42:37.387Z,53.70
2019-04-04T09:45:09.080Z,53.64
2019-04-04T09:47:40.227Z,53.57
2019-04-04T09:50:12.596Z,53.50
2019-04-04T09:52:43.737Z,53.45
2019-04-04T09:55:14.990Z,53.49
2019-04-04T09:57:46.158Z,53.49
2019-04-04T10:00:19.322Z,53.50
2019-04-04T10:02:50.652Z,53.56
2019-04-04T10:05:21.796Z,53.60
2019-04-04T10:07:52.982Z,53.59
2019-04-04T10:10:24.197Z,53.56
2019-04-04T10:12:55.402Z,53.51
2019-04-04T10:15:26.555Z,53.47
2019-04-04T10:17:57.769Z,53.49
2019-04-04T10:20:28.991Z,53.52
2019-04-04T10:23:00.187Z,53.54
2019-04-04T10:25:31.834Z,53.54
2019-04-04T10:28:02.996Z,53.50
2019-04-04T10:30:34.158Z,53.51
2019-04-04T10:33:05.400Z,53.49
2019-04-04T10:35:36.562Z,53.53
2019-04-04T10:38:07.700Z,53.38
2019-04-04T10:40:38.834Z,53.34
2019-04-04T10:43:09.983Z,53.37
2019-04-04T10:45:41.121Z,53.32
2019-04-04T10:48:12.271Z,53.23
2019-04-04T10:50:43.428Z,53.09
2019-04-04T10:53:14.582Z,52.96
2019-04-04T10:55:45.839Z,52.86
2019-04-04T10:58:17.137Z,52.80
2019-04-04T11:00:48.300Z,52.72
2019-04-04T11:03:19.466Z,52.64
2019-04-04T11:05:50.629Z,52.60
2019-04-04T11:08:21.784Z,52.65
2019-04-04T11:10:53.007Z,52.58
2019-04-04T11:13:33.277Z,52.61
2019-04-04T11:15:57.109Z,52.71
2019-04-04T11:18:29.092Z,52.82
2019-04-04T11:21:00.375Z,52.81
2019-04-04T11:23:31.547Z,52.70
2019-04-04T11:26:03.844Z,52.66
2019-04-04T11:28:35.000Z,52.59
2019-04-04T11:31:06.187Z,52.57
2019-04-04T11:33:37.332Z,52.52
2019-04-04T11:36:08.571Z,52.46
2019-04-04T11:38:39.890Z,52.38
2019-04-04T11:41:11.099Z,52.34
2019-04-04T11:43:42.314Z,52.24
2019-04-04T11:46:13.552Z,52.14
2019-04-04T11:48:44.709Z,52.09
2019-04-04T11:51:15.896Z,52.02
2019-04-04T11:53:47.300Z,51.96
2019-04-04T11:56:18.458Z,51.93
2019-04-04T11:58:49.668Z,51.81
2019-04-04T12:01:21.446Z,51.66
2019-04-04T12:03:52.597Z,51.51
2019-04-04T12:06:23.784Z,51.28
2019-04-04T12:08:54.960Z,51.04
2019-04-04T12:11:26.105Z,50.78
2019-04-04T12:13:57.380Z,50.51
2019-04-04T12:16:28.636Z,50.32
2019-04-04T12:18:59.781Z,50.14
2019-04-04T12:21:30.928Z,49.99
2019-04-04T12:24:02.099Z,49.95
2019-04-04T12:26:33.351Z,49.88
2019-04-04T12:29:04.504Z,49.80
2019-04-04T12:31:36.819Z,49.66
2019-04-04T12:34:07.988Z,49.54
2019-04-04T12:36:39.130Z,49.39
2019-04-04T12:39:10.334Z,49.43
2019-04-04T12:41:42.564Z,49.51
2019-04-04T12:44:13.775Z,49.49
2019-04-04T12:46:44.999Z,49.46
2019-04-04T12:49:16.186Z,49.26
2019-04-04T12:51:47.340Z,49.10
2019-04-04T12:54:18.493Z,48.95
2019-04-04T12:56:49.701Z,48.76
2019-04-04T12:59:20.911Z,48.65
2019-04-04T13:01:52.115Z,48.50
2019-04-04T13:04:31.527Z,48.38
2019-04-04T13:06:56.307Z,48.27
2019-04-04T13:09:27.580Z,47.98
2019-04-04T13:11:58.782Z,47.76
2019-04-04T13:14:29.953Z,47.44
2019-04-04T13:17:01.144Z,47.01
2019-04-04T13:19:32.448Z,46.75
2019-04-04T13:22:03.846Z,46.47
2019-04-04T13:24:35.180Z,46.26
2019-04-04T13:27:06.477Z,46.11
2019-04-04T13:29:37.731Z,46.06
2019-04-04T13:32:09.171Z,46.02
2019-04-04T13:34:40.404Z,46.02
2019-04-04T13:37:11.912Z,45.79
2019-04-04T13:39:43.894Z,45.35
2019-04-04T13:42:16.654Z,44.34
2019-04-04T13:44:48.314Z,43.13
2019-04-04T13:47:19.563Z,42.13
2019-04-04T13:49:51.150Z,41.41
2019-04-04T13:52:26.086Z,40.80
2019-04-04T13:54:56.033Z,40.37
2019-04-04T13:57:28.363Z,40.04
2019-04-04T14:00:00.650Z,39.92
2019-04-04T14:02:32.488Z,39.98
2019-04-04T14:05:09.586Z,39.81
2019-04-04T14:07:37.090Z,39.55
2019-04-04T14:10:09.115Z,39.51
2019-04-04T14:12:40.375Z,39.34
2019-04-04T14:15:12.568Z,39.22
2019-04-04T14:17:44.315Z,39.09
2019-04-04T14:20:15.754Z,38.96
2019-04-04T14:22:47.789Z,38.69
2019-04-04T14:25:20.501Z,38.49
2019-04-04T14:27:57.813Z,38.37
2019-04-04T14:30:28.134Z,38.20
2019-04-04T14:32:59.839Z,38.10
2019-04-04T14:35:31.126Z,38.19
2019-04-04T14:38:02.493Z,38.17
2019-04-04T14:40:33.818Z,38.04
2019-04-04T14:43:05.071Z,38.00
2019-04-04T14:45:36.452Z,38.09
2019-04-04T14:48:08.732Z,38.18
2019-04-04T14:50:40.736Z,38.05
2019-04-04T14:53:12.018Z,37.85
2019-04-04T14:55:43.275Z,37.72
2019-04-04T14:58:16.523Z,37.79
2019-04-04T15:00:48.074Z,37.83
2019-04-04T15:03:20.851Z,37.75
2019-04-04T15:05:52.724Z,37.66
2019-04-04T15:08:23.999Z,37.74
2019-04-04T15:11:01.276Z,37.91
2019-04-04T15:13:34.232Z,38.33
2019-04-04T15:16:19.089Z,38.74
2019-04-04T15:18:53.115Z,39.15
2019-04-04T15:21:27.333Z,39.72
2019-04-04T15:23:58.952Z,40.37
2019-04-04T15:26:30.389Z,40.85
2019-04-04T15:29:01.689Z,41.49
2019-04-04T15:31:32.977Z,42.04
2019-04-04T15:34:04.282Z,42.41
2019-04-04T15:36:35.599Z,42.67
2019-04-04T15:39:07.500Z,43.11
2019-04-04T15:41:39.029Z,43.24
2019-04-04T15:44:10.468Z,43.16
2019-04-04T15:46:44.190Z,42.83
2019-04-04T15:49:15.465Z,42.46
2019-04-04T15:51:46.892Z,42.07
2019-04-04T15:54:18.951Z,41.59
2019-04-04T15:56:50.322Z,41.39
2019-04-04T15:59:21.668Z,41.43
2019-04-04T16:01:52.966Z,41.59
2019-04-04T16:04:24.299Z,41.90
2019-04-04T16:06:55.755Z,42.26
2019-04-04T16:09:30.304Z,42.69
2019-04-04T16:12:05.535Z,43.22
2019-04-04T16:14:43.678Z,43.64
2019-04-04T16:17:16.779Z,44.02
2019-04-04T16:19:48.302Z,44.41
2019-04-04T16:22:19.658Z,44.49
2019-04-04T16:24:53.445Z,44.44
2019-04-04T16:27:24.925Z,44.37
2019-04-04T16:29:56.249Z,44.26
2019-04-04T16:32:27.614Z,44.36
2019-04-04T16:34:59.009Z,44.17
2019-04-04T16:37:30.266Z,43.81
2019-04-04T16:40:08.629Z,43.38
2019-04-04T16:42:35.579Z,43.52
2019-04-04T16:45:07.641Z,43.87
2019-04-04T16:47:39.062Z,44.51
2019-04-04T16:50:10.445Z,45.21
2019-04-04T16:52:41.917Z,45.71
2019-04-04T16:55:13.592Z,46.09
2019-04-04T16:57:45.036Z,46.26
2019-04-04T17:00:16.793Z,46.31
2019-04-04T17:02:48.334Z,46.32
2019-04-04T17:05:20.105Z,46.40
2019-04-04T17:07:51.559Z,46.70
2019-04-04T17:10:22.999Z,46.99
2019-04-04T17:12:54.279Z,47.28
2019-04-04T17:15:27.340Z,47.53
2019-04-04T17:17:58.668Z,47.99
2019-04-04T17:20:29.930Z,48.35
2019-04-04T17:23:01.267Z,48.60
2019-04-04T17:25:32.743Z,48.89
2019-04-04T17:28:04.496Z,49.03
2019-04-04T17:30:36.142Z,49.32
2019-04-04T17:33:07.517Z,49.56
2019-04-04T17:35:39.394Z,49.84
2019-04-04T17:38:10.962Z,50.13
2019-04-04T17:40:42.399Z,50.37
2019-04-04T17:43:13.795Z,50.51
2019-04-04T17:45:45.075Z,50.64
2019-04-04T17:48:16.568Z,50.98
2019-04-04T17:50:48.708Z,51.26
2019-04-04T17:53:20.284Z,51.54
2019-04-04T17:55:55.533Z,51.59
2019-04-04T17:58:27.960Z,51.87
2019-04-04T18:01:06.893Z,51.83
2019-04-04T18:03:41.008Z,51.97
2019-04-04T18:06:12.573Z,52.06
2019-04-04T18:08:44.014Z,52.40
2019-04-04T18:11:15.512Z,52.53
2019-04-04T18:13:46.923Z,52.55
2019-04-04T18:16:18.523Z,52.78
2019-04-04T18:18:49.938Z,53.08
2019-04-04T18:21:21.169Z,53.07
2019-04-04T18:23:52.839Z,53.26
2019-04-04T18:26:24.301Z,53.25
2019-04-04T18:28:55.740Z,53.32
2019-04-04T18:31:28.290Z,53.63
2019-04-04T18:33:59.846Z,53.71
2019-04-04T18:36:31.280Z,53.96
2019-04-04T18:39:02.676Z,54.06
2019-04-04T18:41:35.934Z,54.08
2019-04-04T18:44:07.263Z,54.28
2019-04-04T18:46:38.574Z,54.36
2019-04-04T18:49:09.894Z,54.51
2019-04-04T18:55:19.546Z,54.82
2019-04-04T18:57:43.989Z,54.85
2019-04-04T19:00:15.777Z,54.82
2019-04-04T19:02:54.098Z,55.01
2019-04-04T19:05:26.399Z,54.96
2019-04-04T19:07:59.702Z,54.93
2019-04-04T19:10:33.029Z,55.14
2019-04-04T19:13:07.477Z,55.14
2019-04-04T19:15:44.967Z,55.12
2019-04-04T19:18:16.416Z,55.25
2019-04-04T19:21:04.433Z,55.40
2019-04-04T19:23:48.655Z,55.49
2019-04-04T19:26:20.057Z,55.57
2019-04-04T19:28:53.826Z,55.54
2019-04-04T19:31:25.068Z,55.77
2019-04-04T19:33:56.461Z,56.09
2019-04-04T19:36:27.763Z,56.03
2019-04-04T19:39:00.403Z,56.13
2019-04-04T19:41:34.317Z,56.05
2019-04-04T19:44:05.985Z,56.21
2019-04-04T19:46:37.558Z,56.26
2019-04-04T19:49:08.948Z,56.69
2019-04-04T19:51:40.254Z,56.63
2019-04-04T19:54:11.596Z,56.48
2019-04-04T19:56:42.980Z,56.61
2019-04-04T19:59:14.768Z,56.62
2019-04-04T20:01:46.104Z,56.94
2019-04-04T20:04:17.590Z,56.97
2019-04-04T20:06:48.879Z,57.01
2019-04-04T20:09:20.329Z,56.83
2019-04-04T20:11:52.222Z,56.99
2019-04-04T20:14:27.463Z,56.92
2019-04-04T20:16:56.543Z,56.92
2019-04-04T20:19:28.072Z,56.92
2019-04-04T20:21:59.335Z,57.00
2019-04-04T20:24:30.987Z,56.94
2019-04-04T20:27:05.238Z,56.98
2019-04-04T20:29:36.497Z,56.96
2019-04-04T20:32:08.148Z,56.92
2019-04-04T20:34:39.741Z,56.90
2019-04-04T20:37:11.224Z,57.15
2019-04-04T20:39:42.753Z,57.13
2019-04-04T20:42:14.133Z,57.13
2019-04-04T20:44:45.636Z,57.28
2019-04-04T20:47:17.349Z,57.32
2019-04-04T20:49:48.789Z,57.49
2019-04-04T20:52:20.299Z,57.42
2019-04-04T20:54:51.573Z,57.49
2019-04-04T20:57:22.991Z,57.38
2019-04-04T20:59:54.223Z,57.35
2019-04-04T21:02:26.770Z,57.32
2019-04-04T21:04:58.140Z,57.46
2019-04-04T21:07:29.550Z,57.46
2019-04-04T21:10:02.088Z,57.46
2019-04-04T21:12:33.472Z,57.63
2019-04-04T21:15:07.793Z,57.66
2019-04-04T21:17:39.206Z,57.57
2019-04-04T21:20:10.722Z,57.59
2019-04-04T21:22:42.143Z,57.75
2019-04-04T21:25:13.443Z,57.67
2019-04-04T21:27:44.810Z,57.67
2019-04-04T21:30:16.981Z,57.74
2019-04-04T21:32:48.255Z,57.77
2019-04-04T21:35:19.492Z,57.91
2019-04-04T21:37:50.791Z,57.86
2019-04-04T21:40:22.052Z,57.92
2019-04-04T21:42:54.051Z,57.84
2019-04-04T21:45:27.424Z,57.91
2019-04-04T21:47:58.311Z,57.87
2019-04-04T21:50:29.695Z,57.96
2019-04-04T21:53:00.918Z,57.99
2019-04-04T21:55:32.213Z,57.91
2019-04-04T21:58:03.687Z,58.01
2019-04-04T22:00:41.318Z,58.17
2019-04-04T22:03:13.346Z,58.14
2019-04-04T22:05:44.701Z,58.23
2019-04-04T22:08:15.998Z,58.23
2019-04-04T22:10:47.375Z,58.22
2019-04-04T22:13:18.828Z,58.31
2019-04-04T22:15:50.209Z,58.39
2019-04-04T22:18:21.530Z,58.36
2019-04-04T22:20:52.884Z,58.39
2019-04-04T22:23:24.184Z,58.27
2019-04-04T22:25:55.465Z,58.34
2019-04-04T22:28:26.856Z,58.36
2019-04-04T22:30:58.086Z,58.47
2019-04-04T22:33:29.431Z,58.50
2019-04-04T22:36:00.693Z,58.51
2019-04-04T22:38:32.005Z,58.58
2019-04-04T22:41:03.426Z,58.61
2019-04-04T22:43:34.800Z,58.60
2019-04-04T22:46:06.196Z,58.55
2019-04-04T22:48:37.513Z,58.69
2019-04-04T22:51:08.787Z,58.71
2019-04-04T22:53:40.067Z,58.85
2019-04-04T22:56:11.356Z,58.87
2019-04-04T22:58:42.676Z,58.84
2019-04-04T23:01:14.044Z,58.82
2019-04-04T23:03:45.288Z,58.83
2019-04-04T23:06:16.534Z,58.81
2019-04-04T23:08:47.898Z,58.78
2019-04-04T23:11:19.156Z,58.79
2019-04-04T23:13:50.415Z,58.88
2019-04-04T23:16:21.711Z,58.87
2019-04-04T23:18:53.021Z,58.97
2019-04-04T23:21:24.338Z,59.09
2019-04-04T23:23:55.592Z,59.04
2019-04-04T23:26:26.879Z,59.03
2019-04-04T23:28:59.135Z,59.08
2019-04-04T23:31:30.411Z,59.33
2019-04-04T23:34:01.939Z,59.29
2019-04-04T23:36:35.253Z,59.43
2019-04-04T23:39:07.485Z,59.38
2019-04-04T23:41:38.731Z,59.44
2019-04-04T23:44:10.181Z,59.57
2019-04-04T23:46:41.466Z,59.82
2019-04-04T23:49:12.691Z,59.93
2019-04-04T23:51:44.079Z,59.88
2019-04-04T23:54:15.349Z,59.75
2019-04-04T23:56:46.737Z,59.70
2019-04-04T23:59:18.025Z,59.78
